sensor_id;sensor_type;location;lat;lon;timestamp;P1;durP1;ratioP1;P2;durP2;ratioP2
34739;SDS011;20967;48.442;9.994;2022-09-12T00:00:00;24.07;;;13.03;;
34739;SDS011;20967;48.442;9.994;2022-09-12T00:02:28;24.02;;;13.13;;
34739;SDS011;20967;48.442;9.994;2022-09-12T00:04:55;23.95;;;13.32;;
34739;SDS011;20967;48.442;9.994;2022-09-12T00:07:23;30.35;;;14.50;;
34739;SDS011;20967;48.442;9.994;2022-09-12T00:09:50;33.92;;;15.40;;
34739;SDS011;20967;48.442;9.994;2022-09-12T00:12:18;25.52;;;14.65;;
34739;SDS011;20967;48.442;9.994;2022-09-12T00:14:45;29.02;;;13.22;;
34739;SDS011;20967;48.442;9.994;2022-09-12T00:17:13;25.35;;;13.00;;
34739;SDS011;20967;48.442;9.994;2022-09-12T00:19:40;24.77;;;13.88;;
34739;SDS011;20967;48.442;9.994;2022-09-12T00:22:08;27.15;;;14.47;;
34739;SDS011;20967;48.442;9.994;2022-09-12T00:24:35;24.52;;;13.85;;
34739;SDS011;20967;48.442;9.994;2022-09-12T00:27:03;25.55;;;15.45;;
34739;SDS011;20967;48.442;9.994;2022-09-12T00:29:30;24.50;;;14.47;;
34739;SDS011;20967;48.442;9.994;2022-09-12T00:31:58;23.77;;;14.50;;
34739;SDS011;20967;48.442;9.994;2022-09-12T00:34:26;29.70;;;15.23;;
34739;SDS011;20967;48.442;9.994;2022-09-12T00:36:53;31.05;;;15.50;;
34739;SDS011;20967;48.442;9.994;2022-09-12T00:39:21;30.85;;;15.40;;
34739;SDS011;20967;48.442;9.994;2022-09-12T00:41:48;28.85;;;14.83;;
34739;SDS011;20967;48.442;9.994;2022-09-12T00:52:02;20.68;;;11.40;;
34739;SDS011;20967;48.442;9.994;2022-09-12T00:57:00;24.25;;;14.40;;
34739;SDS011;20967;48.442;9.994;2022-09-12T00:59:28;28.27;;;14.70;;
34739;SDS011;20967;48.442;9.994;2022-09-12T01:01:56;25.85;;;14.05;;
34739;SDS011;20967;48.442;9.994;2022-09-12T01:04:24;28.67;;;15.08;;
34739;SDS011;20967;48.442;9.994;2022-09-12T01:06:52;24.27;;;13.72;;
34739;SDS011;20967;48.442;9.994;2022-09-12T01:09:21;27.62;;;14.90;;
34739;SDS011;20967;48.442;9.994;2022-09-12T01:11:49;29.95;;;14.38;;
34739;SDS011;20967;48.442;9.994;2022-09-12T01:14:18;27.85;;;14.45;;
34739;SDS011;20967;48.442;9.994;2022-09-12T01:16:47;30.77;;;14.68;;
34739;SDS011;20967;48.442;9.994;2022-09-12T01:22:19;32.73;;;16.07;;
34739;SDS011;20967;48.442;9.994;2022-09-12T01:32:20;31.48;;;16.23;;
34739;SDS011;20967;48.442;9.994;2022-09-12T01:34:45;33.40;;;16.32;;
34739;SDS011;20967;48.442;9.994;2022-09-12T01:37:30;33.53;;;17.98;;
34739;SDS011;20967;48.442;9.994;2022-09-12T01:40:11;34.33;;;17.75;;
34739;SDS011;20967;48.442;9.994;2022-09-12T01:50:18;45.00;;;20.48;;
34739;SDS011;20967;48.442;9.994;2022-09-12T01:52:55;43.45;;;19.40;;
34739;SDS011;20967;48.442;9.994;2022-09-12T01:57:59;45.17;;;20.15;;
34739;SDS011;20967;48.442;9.994;2022-09-12T02:03:40;41.08;;;20.48;;
34739;SDS011;20967;48.442;9.994;2022-09-12T02:05:35;44.03;;;19.32;;
34739;SDS011;20967;48.442;9.994;2022-09-12T02:10:30;41.30;;;19.35;;
34739;SDS011;20967;48.442;9.994;2022-09-12T02:15:33;46.80;;;19.30;;
34739;SDS011;20967;48.442;9.994;2022-09-12T02:18:01;41.53;;;18.50;;
34739;SDS011;20967;48.442;9.994;2022-09-12T02:20:30;35.95;;;17.45;;
34739;SDS011;20967;48.442;9.994;2022-09-12T02:22:58;39.23;;;17.65;;
34739;SDS011;20967;48.442;9.994;2022-09-12T02:25:26;30.68;;;15.95;;
34739;SDS011;20967;48.442;9.994;2022-09-12T02:30:28;34.13;;;17.40;;
34739;SDS011;20967;48.442;9.994;2022-09-12T02:33:06;37.25;;;17.10;;
34739;SDS011;20967;48.442;9.994;2022-09-12T02:38:16;44.63;;;19.10;;
34739;SDS011;20967;48.442;9.994;2022-09-12T02:43:09;50.95;;;21.62;;
34739;SDS011;20967;48.442;9.994;2022-09-12T02:45:39;44.18;;;21.62;;
34739;SDS011;20967;48.442;9.994;2022-09-12T02:48:10;52.35;;;22.82;;
34739;SDS011;20967;48.442;9.994;2022-09-12T02:50:38;51.95;;;21.82;;
34739;SDS011;20967;48.442;9.994;2022-09-12T02:53:11;47.65;;;22.77;;
34739;SDS011;20967;48.442;9.994;2022-09-12T02:55:36;57.80;;;23.87;;
34739;SDS011;20967;48.442;9.994;2022-09-12T02:58:06;55.28;;;23.57;;
34739;SDS011;20967;48.442;9.994;2022-09-12T03:00:41;57.25;;;24.12;;
34739;SDS011;20967;48.442;9.994;2022-09-12T03:05:54;54.50;;;24.55;;
34739;SDS011;20967;48.442;9.994;2022-09-12T03:13:55;35.05;;;16.05;;
34739;SDS011;20967;48.442;9.994;2022-09-12T03:29:10;33.83;;;16.02;;
34739;SDS011;20967;48.442;9.994;2022-09-12T03:31:46;36.53;;;17.07;;
34739;SDS011;20967;48.442;9.994;2022-09-12T03:34:07;35.35;;;16.90;;
34739;SDS011;20967;48.442;9.994;2022-09-12T03:36:37;34.92;;;17.05;;
34739;SDS011;20967;48.442;9.994;2022-09-12T03:39:06;34.20;;;17.73;;
34739;SDS011;20967;48.442;9.994;2022-09-12T03:41:33;31.55;;;15.55;;
34739;SDS011;20967;48.442;9.994;2022-09-12T03:44:01;29.07;;;15.13;;
34739;SDS011;20967;48.442;9.994;2022-09-12T03:46:29;37.65;;;17.75;;
34739;SDS011;20967;48.442;9.994;2022-09-12T03:48:56;44.83;;;18.67;;
34739;SDS011;20967;48.442;9.994;2022-09-12T03:51:24;43.28;;;17.90;;
34739;SDS011;20967;48.442;9.994;2022-09-12T03:53:52;47.13;;;20.15;;
34739;SDS011;20967;48.442;9.994;2022-09-12T03:56:19;45.73;;;20.60;;
34739;SDS011;20967;48.442;9.994;2022-09-12T03:58:47;43.73;;;18.75;;
34739;SDS011;20967;48.442;9.994;2022-09-12T04:01:15;42.75;;;18.73;;
34739;SDS011;20967;48.442;9.994;2022-09-12T04:03:44;43.00;;;18.20;;
34739;SDS011;20967;48.442;9.994;2022-09-12T04:06:13;36.45;;;17.77;;
34739;SDS011;20967;48.442;9.994;2022-09-12T04:08:41;49.53;;;19.57;;
34739;SDS011;20967;48.442;9.994;2022-09-12T04:11:10;46.23;;;19.55;;
34739;SDS011;20967;48.442;9.994;2022-09-12T04:13:38;43.48;;;19.52;;
34739;SDS011;20967;48.442;9.994;2022-09-12T04:16:06;45.15;;;20.15;;
34739;SDS011;20967;48.442;9.994;2022-09-12T04:18:34;60.67;;;21.85;;
34739;SDS011;20967;48.442;9.994;2022-09-12T04:21:09;55.12;;;22.32;;
34739;SDS011;20967;48.442;9.994;2022-09-12T04:26:03;56.58;;;23.42;;
34739;SDS011;20967;48.442;9.994;2022-09-12T04:28:35;63.78;;;24.30;;
34739;SDS011;20967;48.442;9.994;2022-09-12T04:31:09;65.32;;;23.52;;
34739;SDS011;20967;48.442;9.994;2022-09-12T04:33:33;62.95;;;26.02;;
34739;SDS011;20967;48.442;9.994;2022-09-12T04:36:05;71.22;;;27.73;;
34739;SDS011;20967;48.442;9.994;2022-09-12T04:38:33;65.70;;;26.30;;
34739;SDS011;20967;48.442;9.994;2022-09-12T04:41:23;68.57;;;24.75;;
34739;SDS011;20967;48.442;9.994;2022-09-12T04:43:30;64.42;;;24.47;;
34739;SDS011;20967;48.442;9.994;2022-09-12T04:46:03;57.98;;;22.45;;
34739;SDS011;20967;48.442;9.994;2022-09-12T04:48:27;66.42;;;25.68;;
34739;SDS011;20967;48.442;9.994;2022-09-12T04:50:54;68.40;;;24.77;;
34739;SDS011;20967;48.442;9.994;2022-09-12T04:53:22;58.83;;;23.98;;
34739;SDS011;20967;48.442;9.994;2022-09-12T04:55:49;71.12;;;27.45;;
34739;SDS011;20967;48.442;9.994;2022-09-12T04:58:17;66.95;;;25.32;;
34739;SDS011;20967;48.442;9.994;2022-09-12T05:00:44;64.65;;;25.55;;
34739;SDS011;20967;48.442;9.994;2022-09-12T05:03:12;90.17;;;27.87;;
34739;SDS011;20967;48.442;9.994;2022-09-12T05:05:39;122.15;;;29.67;;
34739;SDS011;20967;48.442;9.994;2022-09-12T05:08:10;203.05;;;33.15;;
34739;SDS011;20967;48.442;9.994;2022-09-12T05:10:38;242.25;;;35.00;;
34739;SDS011;20967;48.442;9.994;2022-09-12T05:13:05;162.85;;;34.70;;
34739;SDS011;20967;48.442;9.994;2022-09-12T05:15:33;103.42;;;30.48;;
34739;SDS011;20967;48.442;9.994;2022-09-12T05:18:01;135.00;;;32.55;;
34739;SDS011;20967;48.442;9.994;2022-09-12T05:20:28;122.45;;;34.03;;
34739;SDS011;20967;48.442;9.994;2022-09-12T05:22:56;141.37;;;33.85;;
34739;SDS011;20967;48.442;9.994;2022-09-12T05:25:25;170.25;;;34.75;;
34739;SDS011;20967;48.442;9.994;2022-09-12T05:27:52;251.82;;;36.73;;
34739;SDS011;20967;48.442;9.994;2022-09-12T05:30:20;284.87;;;39.90;;
34739;SDS011;20967;48.442;9.994;2022-09-12T05:32:47;162.90;;;34.10;;
34739;SDS011;20967;48.442;9.994;2022-09-12T05:35:15;196.95;;;35.23;;
34739;SDS011;20967;48.442;9.994;2022-09-12T05:37:43;108.67;;;30.50;;
34739;SDS011;20967;48.442;9.994;2022-09-12T05:40:11;128.78;;;34.95;;
34739;SDS011;20967;48.442;9.994;2022-09-12T05:42:40;200.60;;;37.23;;
34739;SDS011;20967;48.442;9.994;2022-09-12T05:45:08;144.68;;;35.50;;
34739;SDS011;20967;48.442;9.994;2022-09-12T05:47:35;202.78;;;35.65;;
34739;SDS011;20967;48.442;9.994;2022-09-12T05:50:03;139.43;;;32.08;;
34739;SDS011;20967;48.442;9.994;2022-09-12T05:52:32;310.17;;;36.60;;
34739;SDS011;20967;48.442;9.994;2022-09-12T05:55:00;141.70;;;31.27;;
34739;SDS011;20967;48.442;9.994;2022-09-12T05:57:27;235.38;;;33.38;;
34739;SDS011;20967;48.442;9.994;2022-09-12T05:59:55;148.57;;;30.20;;
34739;SDS011;20967;48.442;9.994;2022-09-12T06:02:23;197.05;;;32.30;;
34739;SDS011;20967;48.442;9.994;2022-09-12T06:04:50;186.97;;;31.52;;
34739;SDS011;20967;48.442;9.994;2022-09-12T06:07:18;323.55;;;35.68;;
34739;SDS011;20967;48.442;9.994;2022-09-12T06:09:47;202.78;;;32.33;;
34739;SDS011;20967;48.442;9.994;2022-09-12T06:12:16;249.58;;;31.23;;
34739;SDS011;20967;48.442;9.994;2022-09-12T06:14:43;186.47;;;31.25;;
34739;SDS011;20967;48.442;9.994;2022-09-12T06:17:12;252.70;;;26.42;;
34739;SDS011;20967;48.442;9.994;2022-09-12T06:19:39;194.72;;;27.75;;
34739;SDS011;20967;48.442;9.994;2022-09-12T06:22:07;120.92;;;22.60;;
34739;SDS011;20967;48.442;9.994;2022-09-12T06:24:35;136.43;;;24.52;;
34739;SDS011;20967;48.442;9.994;2022-09-12T06:27:03;119.40;;;21.82;;
34739;SDS011;20967;48.442;9.994;2022-09-12T06:29:31;111.30;;;21.87;;
34739;SDS011;20967;48.442;9.994;2022-09-12T06:31:58;121.35;;;19.90;;
34739;SDS011;20967;48.442;9.994;2022-09-12T06:34:26;180.90;;;22.25;;
34739;SDS011;20967;48.442;9.994;2022-09-12T06:36:53;107.17;;;19.77;;
34739;SDS011;20967;48.442;9.994;2022-09-12T06:39:23;105.30;;;18.52;;
34739;SDS011;20967;48.442;9.994;2022-09-12T06:41:51;110.25;;;19.60;;
34739;SDS011;20967;48.442;9.994;2022-09-12T06:44:20;170.00;;;21.12;;
34739;SDS011;20967;48.442;9.994;2022-09-12T06:46:48;132.63;;;18.57;;
34739;SDS011;20967;48.442;9.994;2022-09-12T06:49:16;157.05;;;18.40;;
34739;SDS011;20967;48.442;9.994;2022-09-12T06:51:45;145.87;;;17.15;;
34739;SDS011;20967;48.442;9.994;2022-09-12T06:54:13;195.38;;;17.37;;
34739;SDS011;20967;48.442;9.994;2022-09-12T06:56:42;137.45;;;16.07;;
34739;SDS011;20967;48.442;9.994;2022-09-12T06:59:12;211.72;;;16.55;;
34739;SDS011;20967;48.442;9.994;2022-09-12T07:01:39;124.55;;;14.87;;
34739;SDS011;20967;48.442;9.994;2022-09-12T07:04:07;103.40;;;12.58;;
34739;SDS011;20967;48.442;9.994;2022-09-12T07:06:36;135.15;;;13.85;;
34739;SDS011;20967;48.442;9.994;2022-09-12T07:09:04;109.10;;;14.78;;
34739;SDS011;20967;48.442;9.994;2022-09-12T07:11:35;62.80;;;12.43;;
34739;SDS011;20967;48.442;9.994;2022-09-12T07:14:04;88.47;;;11.83;;
34739;SDS011;20967;48.442;9.994;2022-09-12T07:16:33;91.28;;;13.15;;
34739;SDS011;20967;48.442;9.994;2022-09-12T07:19:02;107.50;;;13.85;;
34739;SDS011;20967;48.442;9.994;2022-09-12T07:21:29;99.60;;;13.05;;
34739;SDS011;20967;48.442;9.994;2022-09-12T07:23:57;100.90;;;14.28;;
34739;SDS011;20967;48.442;9.994;2022-09-12T07:26:28;79.72;;;12.70;;
34739;SDS011;20967;48.442;9.994;2022-09-12T07:28:56;62.43;;;11.00;;
34739;SDS011;20967;48.442;9.994;2022-09-12T07:31:25;84.10;;;12.40;;
34739;SDS011;20967;48.442;9.994;2022-09-12T07:33:53;53.73;;;10.72;;
34739;SDS011;20967;48.442;9.994;2022-09-12T07:36:21;35.73;;;11.38;;
34739;SDS011;20967;48.442;9.994;2022-09-12T07:38:53;38.70;;;10.28;;
34739;SDS011;20967;48.442;9.994;2022-09-12T07:41:25;33.55;;;10.45;;
34739;SDS011;20967;48.442;9.994;2022-09-12T07:43:55;29.35;;;9.33;;
34739;SDS011;20967;48.442;9.994;2022-09-12T07:46:23;35.73;;;8.60;;
34739;SDS011;20967;48.442;9.994;2022-09-12T07:48:51;63.28;;;8.80;;
34739;SDS011;20967;48.442;9.994;2022-09-12T07:51:19;85.57;;;9.88;;
34739;SDS011;20967;48.442;9.994;2022-09-12T07:53:47;30.43;;;8.48;;
34739;SDS011;20967;48.442;9.994;2022-09-12T07:56:14;12.40;;;7.35;;
34739;SDS011;20967;48.442;9.994;2022-09-12T07:58:43;30.48;;;7.33;;
34739;SDS011;20967;48.442;9.994;2022-09-12T08:01:12;11.28;;;6.50;;
34739;SDS011;20967;48.442;9.994;2022-09-12T08:03:40;19.07;;;7.47;;
34739;SDS011;20967;48.442;9.994;2022-09-12T08:06:08;14.80;;;7.55;;
34739;SDS011;20967;48.442;9.994;2022-09-12T08:08:37;43.08;;;7.78;;
34739;SDS011;20967;48.442;9.994;2022-09-12T08:11:06;17.20;;;7.97;;
34739;SDS011;20967;48.442;9.994;2022-09-12T08:13:34;16.65;;;7.42;;
34739;SDS011;20967;48.442;9.994;2022-09-12T08:16:03;9.55;;;6.22;;
34739;SDS011;20967;48.442;9.994;2022-09-12T08:18:31;11.33;;;6.33;;
34739;SDS011;20967;48.442;9.994;2022-09-12T08:21:00;11.78;;;6.47;;
34739;SDS011;20967;48.442;9.994;2022-09-12T08:23:30;8.20;;;6.12;;
34739;SDS011;20967;48.442;9.994;2022-09-12T08:25:58;11.43;;;7.17;;
34739;SDS011;20967;48.442;9.994;2022-09-12T08:28:26;10.13;;;6.10;;
34739;SDS011;20967;48.442;9.994;2022-09-12T08:30:58;9.30;;;6.45;;
34739;SDS011;20967;48.442;9.994;2022-09-12T08:33:25;7.15;;;5.50;;
34739;SDS011;20967;48.442;9.994;2022-09-12T08:35:54;8.90;;;5.85;;
34739;SDS011;20967;48.442;9.994;2022-09-12T08:38:23;8.65;;;6.40;;
34739;SDS011;20967;48.442;9.994;2022-09-12T08:40:54;8.10;;;5.85;;
34739;SDS011;20967;48.442;9.994;2022-09-12T08:45:57;8.05;;;5.58;;
34739;SDS011;20967;48.442;9.994;2022-09-12T08:48:22;7.37;;;5.15;;
34739;SDS011;20967;48.442;9.994;2022-09-12T08:50:50;6.22;;;4.67;;
34739;SDS011;20967;48.442;9.994;2022-09-12T08:53:20;6.67;;;4.67;;
34739;SDS011;20967;48.442;9.994;2022-09-12T08:55:58;6.60;;;4.62;;
34739;SDS011;20967;48.442;9.994;2022-09-12T08:58:25;11.85;;;4.53;;
34739;SDS011;20967;48.442;9.994;2022-09-12T09:06:12;8.40;;;5.90;;
34739;SDS011;20967;48.442;9.994;2022-09-12T09:11:20;9.63;;;4.40;;
34739;SDS011;20967;48.442;9.994;2022-09-12T09:19:03;5.80;;;3.87;;
34739;SDS011;20967;48.442;9.994;2022-09-12T09:21:40;8.43;;;4.58;;
34739;SDS011;20967;48.442;9.994;2022-09-12T09:24:03;4.85;;;3.58;;
34739;SDS011;20967;48.442;9.994;2022-09-12T09:26:53;5.65;;;3.80;;
34739;SDS011;20967;48.442;9.994;2022-09-12T09:29:19;5.12;;;3.05;;
34739;SDS011;20967;48.442;9.994;2022-09-12T09:31:55;3.85;;;3.02;;
34739;SDS011;20967;48.442;9.994;2022-09-12T09:34:24;6.62;;;3.65;;
34739;SDS011;20967;48.442;9.994;2022-09-12T09:39:30;5.67;;;3.27;;
34739;SDS011;20967;48.442;9.994;2022-09-12T09:42:15;4.40;;;2.53;;
34739;SDS011;20967;48.442;9.994;2022-09-12T09:44:41;5.37;;;2.85;;
34739;SDS011;20967;48.442;9.994;2022-09-12T09:47:09;3.35;;;2.98;;
34739;SDS011;20967;48.442;9.994;2022-09-12T09:49:38;5.67;;;3.77;;
34739;SDS011;20967;48.442;9.994;2022-09-12T09:52:06;6.37;;;4.22;;
34739;SDS011;20967;48.442;9.994;2022-09-12T09:54:38;7.40;;;4.37;;
34739;SDS011;20967;48.442;9.994;2022-09-12T09:57:03;10.18;;;4.40;;
34739;SDS011;20967;48.442;9.994;2022-09-12T09:59:31;4.95;;;3.77;;
34739;SDS011;20967;48.442;9.994;2022-09-12T10:02:00;4.50;;;3.25;;
34739;SDS011;20967;48.442;9.994;2022-09-12T10:04:30;5.22;;;3.40;;
34739;SDS011;20967;48.442;9.994;2022-09-12T10:06:58;5.22;;;3.20;;
34739;SDS011;20967;48.442;9.994;2022-09-12T10:09:29;4.97;;;3.42;;
34739;SDS011;20967;48.442;9.994;2022-09-12T10:11:59;4.67;;;3.17;;
34739;SDS011;20967;48.442;9.994;2022-09-12T10:14:34;4.05;;;2.67;;
34739;SDS011;20967;48.442;9.994;2022-09-12T10:19:34;4.15;;;2.70;;
34739;SDS011;20967;48.442;9.994;2022-09-12T10:22:02;4.00;;;2.80;;
34739;SDS011;20967;48.442;9.994;2022-09-12T10:24:38;4.30;;;2.47;;
34739;SDS011;20967;48.442;9.994;2022-09-12T10:29:38;3.37;;;2.50;;
34739;SDS011;20967;48.442;9.994;2022-09-12T10:32:05;5.58;;;3.08;;
34739;SDS011;20967;48.442;9.994;2022-09-12T10:34:43;7.62;;;2.75;;
34739;SDS011;20967;48.442;9.994;2022-09-12T10:39:34;4.20;;;3.12;;
34739;SDS011;20967;48.442;9.994;2022-09-12T10:42:02;3.35;;;2.75;;
34739;SDS011;20967;48.442;9.994;2022-09-12T10:44:32;5.10;;;3.40;;
34739;SDS011;20967;48.442;9.994;2022-09-12T10:47:17;5.15;;;2.95;;
34739;SDS011;20967;48.442;9.994;2022-09-12T10:49:29;3.45;;;2.72;;
34739;SDS011;20967;48.442;9.994;2022-09-12T10:52:14;5.28;;;2.40;;
34739;SDS011;20967;48.442;9.994;2022-09-12T10:54:28;3.95;;;2.47;;
34739;SDS011;20967;48.442;9.994;2022-09-12T10:57:00;3.08;;;2.25;;
34739;SDS011;20967;48.442;9.994;2022-09-12T11:02:00;4.42;;;2.62;;
34739;SDS011;20967;48.442;9.994;2022-09-12T11:12:07;3.80;;;2.40;;
34739;SDS011;20967;48.442;9.994;2022-09-12T11:17:10;5.05;;;2.58;;
34739;SDS011;20967;48.442;9.994;2022-09-12T11:19:44;5.95;;;2.25;;
34739;SDS011;20967;48.442;9.994;2022-09-12T11:24:54;4.50;;;2.90;;
34739;SDS011;20967;48.442;9.994;2022-09-12T11:29:47;2.70;;;2.17;;
34739;SDS011;20967;48.442;9.994;2022-09-12T11:35:02;3.90;;;2.62;;
34739;SDS011;20967;48.442;9.994;2022-09-12T11:39:55;3.27;;;2.27;;
34739;SDS011;20967;48.442;9.994;2022-09-12T11:42:29;3.90;;;2.58;;
34739;SDS011;20967;48.442;9.994;2022-09-12T11:45:00;6.22;;;3.10;;
34739;SDS011;20967;48.442;9.994;2022-09-12T11:47:27;6.70;;;3.02;;
34739;SDS011;20967;48.442;9.994;2022-09-12T11:49:55;4.10;;;3.22;;
34739;SDS011;20967;48.442;9.994;2022-09-12T11:52:27;4.83;;;2.45;;
34739;SDS011;20967;48.442;9.994;2022-09-12T11:57:39;3.08;;;2.20;;
34739;SDS011;20967;48.442;9.994;2022-09-12T12:02:40;6.95;;;3.65;;
34739;SDS011;20967;48.442;9.994;2022-09-12T12:05:23;4.22;;;3.00;;
34739;SDS011;20967;48.442;9.994;2022-09-12T12:07:54;3.07;;;2.77;;
34739;SDS011;20967;48.442;9.994;2022-09-12T12:10:37;2.85;;;2.33;;
34739;SDS011;20967;48.442;9.994;2022-09-12T12:13:17;4.70;;;2.70;;
34739;SDS011;20967;48.442;9.994;2022-09-12T12:18:15;3.70;;;2.55;;
34739;SDS011;20967;48.442;9.994;2022-09-12T12:20:43;4.97;;;2.70;;
34739;SDS011;20967;48.442;9.994;2022-09-12T12:23:31;5.75;;;2.77;;
34739;SDS011;20967;48.442;9.994;2022-09-12T12:25:56;7.40;;;2.70;;
34739;SDS011;20967;48.442;9.994;2022-09-12T12:31:15;4.83;;;2.77;;
34739;SDS011;20967;48.442;9.994;2022-09-12T12:36:57;4.37;;;2.60;;
34739;SDS011;20967;48.442;9.994;2022-09-12T12:38:41;7.72;;;2.60;;
34739;SDS011;20967;48.442;9.994;2022-09-12T12:46:12;2.50;;;2.30;;
34739;SDS011;20967;48.442;9.994;2022-09-12T12:48:50;3.17;;;2.33;;
34739;SDS011;20967;48.442;9.994;2022-09-12T12:53:46;5.00;;;2.10;;
34739;SDS011;20967;48.442;9.994;2022-09-12T12:56:27;3.45;;;2.20;;
34739;SDS011;20967;48.442;9.994;2022-09-12T13:01:22;3.58;;;2.62;;
34739;SDS011;20967;48.442;9.994;2022-09-12T13:03:53;4.67;;;2.80;;
34739;SDS011;20967;48.442;9.994;2022-09-12T13:06:32;4.30;;;2.90;;
34739;SDS011;20967;48.442;9.994;2022-09-12T13:11:31;2.87;;;2.20;;
34739;SDS011;20967;48.442;9.994;2022-09-12T13:14:00;3.40;;;1.90;;
34739;SDS011;20967;48.442;9.994;2022-09-12T13:16:29;3.20;;;1.77;;
34739;SDS011;20967;48.442;9.994;2022-09-12T13:19:00;7.72;;;3.02;;
34739;SDS011;20967;48.442;9.994;2022-09-12T13:21:26;6.10;;;2.40;;
34739;SDS011;20967;48.442;9.994;2022-09-12T13:24:00;3.08;;;2.27;;
34739;SDS011;20967;48.442;9.994;2022-09-12T13:29:15;3.95;;;2.10;;
34739;SDS011;20967;48.442;9.994;2022-09-12T13:39:37;2.40;;;1.90;;
34739;SDS011;20967;48.442;9.994;2022-09-12T13:44:52;3.70;;;2.50;;
34739;SDS011;20967;48.442;9.994;2022-09-12T13:52:27;2.62;;;1.70;;
34739;SDS011;20967;48.442;9.994;2022-09-12T13:54:55;5.85;;;2.30;;
34739;SDS011;20967;48.442;9.994;2022-09-12T13:57:27;1.95;;;1.40;;
34739;SDS011;20967;48.442;9.994;2022-09-12T13:59:56;4.00;;;1.70;;
34739;SDS011;20967;48.442;9.994;2022-09-12T14:02:25;6.00;;;2.15;;
34739;SDS011;20967;48.442;9.994;2022-09-12T14:04:54;2.08;;;1.70;;
34739;SDS011;20967;48.442;9.994;2022-09-12T14:07:38;2.80;;;1.50;;
34739;SDS011;20967;48.442;9.994;2022-09-12T14:10:06;3.45;;;1.12;;
34739;SDS011;20967;48.442;9.994;2022-09-12T14:12:35;1.47;;;1.32;;
34739;SDS011;20967;48.442;9.994;2022-09-12T14:15:03;2.87;;;1.75;;
34739;SDS011;20967;48.442;9.994;2022-09-12T14:17:31;3.95;;;1.40;;
34739;SDS011;20967;48.442;9.994;2022-09-12T14:20:00;2.70;;;1.40;;
34739;SDS011;20967;48.442;9.994;2022-09-12T14:22:28;3.12;;;1.52;;
34739;SDS011;20967;48.442;9.994;2022-09-12T14:24:56;2.27;;;1.80;;
34739;SDS011;20967;48.442;9.994;2022-09-12T14:27:26;2.42;;;1.50;;
34739;SDS011;20967;48.442;9.994;2022-09-12T14:30:06;3.52;;;1.87;;
34739;SDS011;20967;48.442;9.994;2022-09-12T14:40:21;2.67;;;1.52;;
34739;SDS011;20967;48.442;9.994;2022-09-12T14:45:30;1.95;;;1.20;;
34739;SDS011;20967;48.442;9.994;2022-09-12T14:47:46;1.47;;;1.32;;
34739;SDS011;20967;48.442;9.994;2022-09-12T14:50:15;3.80;;;1.50;;
34739;SDS011;20967;48.442;9.994;2022-09-12T14:52:42;2.20;;;1.60;;
34739;SDS011;20967;48.442;9.994;2022-09-12T14:55:26;1.62;;;1.40;;
34739;SDS011;20967;48.442;9.994;2022-09-12T15:00:19;2.87;;;1.72;;
34739;SDS011;20967;48.442;9.994;2022-09-12T15:02:48;2.98;;;1.32;;
34739;SDS011;20967;48.442;9.994;2022-09-12T15:05:19;2.83;;;1.10;;
34739;SDS011;20967;48.442;9.994;2022-09-12T15:15:42;2.20;;;1.47;;
34739;SDS011;20967;48.442;9.994;2022-09-12T15:18:09;1.75;;;1.30;;
34739;SDS011;20967;48.442;9.994;2022-09-12T15:20:38;4.50;;;1.40;;
34739;SDS011;20967;48.442;9.994;2022-09-12T15:23:06;1.82;;;1.30;;
34739;SDS011;20967;48.442;9.994;2022-09-12T15:25:35;4.50;;;1.45;;
34739;SDS011;20967;48.442;9.994;2022-09-12T15:28:12;1.25;;;1.15;;
34739;SDS011;20967;48.442;9.994;2022-09-12T15:30:32;1.47;;;1.20;;
34739;SDS011;20967;48.442;9.994;2022-09-12T15:32:59;1.47;;;1.25;;
34739;SDS011;20967;48.442;9.994;2022-09-12T15:35:27;1.57;;;1.22;;
34739;SDS011;20967;48.442;9.994;2022-09-12T15:37:58;1.32;;;1.17;;
34739;SDS011;20967;48.442;9.994;2022-09-12T15:40:25;2.08;;;1.32;;
34739;SDS011;20967;48.442;9.994;2022-09-12T15:42:53;2.50;;;1.47;;
34739;SDS011;20967;48.442;9.994;2022-09-12T15:45:21;3.87;;;1.20;;
34739;SDS011;20967;48.442;9.994;2022-09-12T15:47:50;3.45;;;1.47;;
34739;SDS011;20967;48.442;9.994;2022-09-12T15:50:17;1.45;;;1.02;;
34739;SDS011;20967;48.442;9.994;2022-09-12T15:52:45;6.15;;;1.42;;
34739;SDS011;20967;48.442;9.994;2022-09-12T15:55:47;4.42;;;1.60;;
34739;SDS011;20967;48.442;9.994;2022-09-12T16:00:19;2.30;;;1.40;;
34739;SDS011;20967;48.442;9.994;2022-09-12T16:02:49;3.20;;;1.30;;
34739;SDS011;20967;48.442;9.994;2022-09-12T16:05:18;1.70;;;1.37;;
34739;SDS011;20967;48.442;9.994;2022-09-12T16:07:46;1.57;;;1.02;;
34739;SDS011;20967;48.442;9.994;2022-09-12T16:10:15;2.85;;;1.20;;
34739;SDS011;20967;48.442;9.994;2022-09-12T16:12:43;1.50;;;1.40;;
34739;SDS011;20967;48.442;9.994;2022-09-12T16:15:15;2.20;;;1.20;;
34739;SDS011;20967;48.442;9.994;2022-09-12T16:17:43;1.67;;;1.07;;
34739;SDS011;20967;48.442;9.994;2022-09-12T16:20:11;1.75;;;1.10;;
34739;SDS011;20967;48.442;9.994;2022-09-12T16:22:39;3.62;;;1.12;;
34739;SDS011;20967;48.442;9.994;2022-09-12T16:25:06;1.72;;;1.42;;
34739;SDS011;20967;48.442;9.994;2022-09-12T16:27:34;3.20;;;1.20;;
34739;SDS011;20967;48.442;9.994;2022-09-12T16:30:03;1.37;;;1.10;;
34739;SDS011;20967;48.442;9.994;2022-09-12T16:32:30;2.12;;;1.15;;
34739;SDS011;20967;48.442;9.994;2022-09-12T16:34:59;1.30;;;1.20;;
34739;SDS011;20967;48.442;9.994;2022-09-12T16:37:27;3.12;;;1.20;;
34739;SDS011;20967;48.442;9.994;2022-09-12T16:39:55;1.80;;;1.40;;
34739;SDS011;20967;48.442;9.994;2022-09-12T16:42:23;1.90;;;1.15;;
34739;SDS011;20967;48.442;9.994;2022-09-12T16:44:50;1.20;;;1.10;;
34739;SDS011;20967;48.442;9.994;2022-09-12T16:47:18;1.70;;;1.20;;
34739;SDS011;20967;48.442;9.994;2022-09-12T16:49:45;5.60;;;1.35;;
34739;SDS011;20967;48.442;9.994;2022-09-12T16:52:13;3.52;;;1.20;;
34739;SDS011;20967;48.442;9.994;2022-09-12T16:54:42;1.62;;;1.20;;
34739;SDS011;20967;48.442;9.994;2022-09-12T16:57:12;3.92;;;1.02;;
34739;SDS011;20967;48.442;9.994;2022-09-12T16:59:40;2.67;;;1.47;;
34739;SDS011;20967;48.442;9.994;2022-09-12T17:02:14;1.10;;;1.00;;
34739;SDS011;20967;48.442;9.994;2022-09-12T17:04:39;3.08;;;1.40;;
34739;SDS011;20967;48.442;9.994;2022-09-12T17:07:06;2.85;;;1.30;;
34739;SDS011;20967;48.442;9.994;2022-09-12T17:09:34;3.55;;;1.90;;
34739;SDS011;20967;48.442;9.994;2022-09-12T17:12:02;8.53;;;2.25;;
34739;SDS011;20967;48.442;9.994;2022-09-12T17:14:30;5.22;;;1.50;;
34739;SDS011;20967;48.442;9.994;2022-09-12T17:16:57;8.73;;;2.15;;
34739;SDS011;20967;48.442;9.994;2022-09-12T17:19:25;15.88;;;2.45;;
34739;SDS011;20967;48.442;9.994;2022-09-12T17:21:55;17.25;;;1.87;;
34739;SDS011;20967;48.442;9.994;2022-09-12T17:24:23;15.80;;;2.05;;
34739;SDS011;20967;48.442;9.994;2022-09-12T17:26:51;19.05;;;2.50;;
34739;SDS011;20967;48.442;9.994;2022-09-12T17:29:22;14.53;;;2.77;;
34739;SDS011;20967;48.442;9.994;2022-09-12T17:31:51;5.42;;;2.00;;
34739;SDS011;20967;48.442;9.994;2022-09-12T17:34:20;19.30;;;2.00;;
34739;SDS011;20967;48.442;9.994;2022-09-12T17:36:50;8.93;;;2.00;;
34739;SDS011;20967;48.442;9.994;2022-09-12T17:39:18;7.30;;;2.37;;
34739;SDS011;20967;48.442;9.994;2022-09-12T17:41:46;10.60;;;2.27;;
34739;SDS011;20967;48.442;9.994;2022-09-12T17:44:15;9.25;;;1.70;;
34739;SDS011;20967;48.442;9.994;2022-09-12T17:46:44;4.53;;;1.77;;
34739;SDS011;20967;48.442;9.994;2022-09-12T17:49:12;6.60;;;1.90;;